createdAt,value
2022-08-04T00:02:18.915Z,25.90
2022-08-04T00:05:01.302Z,25.90
2022-08-04T00:07:44.991Z,25.90
2022-08-04T00:10:17.386Z,25.90
2022-08-04T00:12:48.659Z,25.90
2022-08-04T00:15:17.176Z,25.80
2022-08-04T00:18:19.592Z,25.80
2022-08-04T00:20:46.799Z,25.80
2022-08-04T00:23:15.035Z,25.80
2022-08-04T00:25:42.267Z,25.80
2022-08-04T00:28:10.226Z,25.80
2022-08-04T00:30:37.779Z,25.80
2022-08-04T00:33:04.918Z,25.70
2022-08-04T00:35:33.657Z,25.70
2022-08-04T00:38:03.483Z,25.70
2022-08-04T00:40:36.888Z,25.70
2022-08-04T00:43:10.398Z,25.70
2022-08-04T00:46:15.743Z,25.70
2022-08-04T00:48:33.586Z,25.70
2022-08-04T00:51:16.238Z,25.60
2022-08-04T00:54:05.761Z,25.60
2022-08-04T00:57:29.887Z,25.60
2022-08-04T01:00:14.655Z,25.60
2022-08-04T01:03:02.946Z,25.60
2022-08-04T01:05:37.939Z,25.60
2022-08-04T01:08:41.101Z,25.50
2022-08-04T01:11:56.255Z,25.50
2022-08-04T01:14:48.625Z,25.50
2022-08-04T01:17:28.710Z,25.50
2022-08-04T01:20:10.048Z,25.40
2022-08-04T01:23:08.788Z,25.40
2022-08-04T01:26:42.680Z,25.40
2022-08-04T01:29:09.750Z,25.40
2022-08-04T01:32:00.723Z,25.40
2022-08-04T01:34:31.528Z,25.40
2022-08-04T01:37:15.851Z,25.30
2022-08-04T01:39:52.296Z,25.30
2022-08-04T01:42:31.921Z,25.30
2022-08-04T01:45:06.260Z,25.30
2022-08-04T01:47:36.448Z,25.30
2022-08-04T01:50:10.081Z,25.30
2022-08-04T01:52:40.094Z,25.30
2022-08-04T01:55:10.359Z,25.20
2022-08-04T01:57:47.243Z,25.20
2022-08-04T02:00:22.989Z,25.20
2022-08-04T02:02:51.678Z,25.20
2022-08-04T02:05:21.542Z,25.20
2022-08-04T02:08:03.385Z,25.20
2022-08-04T02:10:50.443Z,25.20
2022-08-04T02:13:32.136Z,25.20
2022-08-04T02:16:13.857Z,25.10
2022-08-04T02:19:14.818Z,25.10
2022-08-04T02:21:44.763Z,25.20
2022-08-04T02:24:18.843Z,25.10
2022-08-04T02:26:53.614Z,25.10
2022-08-04T02:29:36.004Z,25.10
2022-08-04T02:32:14.253Z,25.10
2022-08-04T02:35:05.658Z,25.10
2022-08-04T02:37:33.505Z,25.00
2022-08-04T02:40:03.966Z,25.00
2022-08-04T02:42:32.025Z,25.00
2022-08-04T02:45:00.856Z,25.00
2022-08-04T02:48:29.656Z,25.00
2022-08-04T02:50:29.068Z,25.00
2022-08-04T02:53:00.461Z,25.00
2022-08-04T02:55:29.985Z,25.00
2022-08-04T02:57:58.951Z,24.90
2022-08-04T03:00:26.664Z,25.00
2022-08-04T03:02:59.598Z,25.00
2022-08-04T03:05:54.142Z,25.00
2022-08-04T03:08:39.184Z,24.90
2022-08-04T03:11:16.968Z,24.90
2022-08-04T03:14:27.867Z,24.90
2022-08-04T03:17:25.916Z,24.90
2022-08-04T03:19:53.004Z,24.90
2022-08-04T03:23:11.717Z,24.90
2022-08-04T03:26:08.483Z,24.90
2022-08-04T03:29:14.092Z,24.80
2022-08-04T03:32:38.151Z,24.80
2022-08-04T03:35:34.549Z,24.80
2022-08-04T03:38:19.966Z,24.80
2022-08-04T03:40:59.287Z,24.80
2022-08-04T03:43:58.279Z,24.80
2022-08-04T03:46:44.211Z,24.80
2022-08-04T03:49:40.380Z,24.80
2022-08-04T03:53:10.468Z,24.80
2022-08-04T03:56:28.119Z,24.80
2022-08-04T03:59:06.820Z,24.70
2022-08-04T04:02:02.525Z,24.70
2022-08-04T04:04:41.469Z,24.70
2022-08-04T04:07:36.383Z,24.70
2022-08-04T04:10:21.466Z,24.70
2022-08-04T04:13:12.553Z,24.70
2022-08-04T04:16:07.447Z,24.70
2022-08-04T04:19:00.735Z,24.70
2022-08-04T04:21:48.562Z,24.70
2022-08-04T04:24:43.021Z,24.60
2022-08-04T04:27:29.571Z,24.60
2022-08-04T04:30:01.694Z,24.60
2022-08-04T04:32:38.065Z,24.60
2022-08-04T04:35:19.645Z,24.60
2022-08-04T04:37:48.085Z,24.60
2022-08-04T04:40:41.462Z,24.60
2022-08-04T04:43:18.042Z,24.60
2022-08-04T04:46:06.100Z,24.60
2022-08-04T04:48:43.070Z,24.60
2022-08-04T04:51:37.692Z,24.60
2022-08-04T04:54:22.159Z,24.60
2022-08-04T04:57:01.733Z,24.50
2022-08-04T04:59:37.061Z,24.60
2022-08-04T05:02:21.978Z,24.50
2022-08-04T05:05:03.523Z,24.50
2022-08-04T05:07:52.980Z,24.50
2022-08-04T05:10:51.256Z,24.50
2022-08-04T05:14:36.038Z,24.50
2022-08-04T05:16:44.919Z,24.50
2022-08-04T05:19:11.953Z,24.50
2022-08-04T05:21:48.217Z,24.40
2022-08-04T05:24:22.440Z,24.50
2022-08-04T05:26:56.313Z,24.40
2022-08-04T05:29:38.049Z,24.40
2022-08-04T05:32:13.439Z,24.40
2022-08-04T05:34:45.266Z,24.40
2022-08-04T05:37:17.813Z,24.40
2022-08-04T05:39:49.959Z,24.40
2022-08-04T05:42:17.108Z,24.40
2022-08-04T05:44:50.467Z,24.40
2022-08-04T05:47:21.558Z,24.40
2022-08-04T05:49:55.536Z,24.40
2022-08-04T05:52:29.889Z,24.40
2022-08-04T05:54:58.586Z,24.40
2022-08-04T05:57:26.266Z,24.40
2022-08-04T05:59:57.575Z,24.40
2022-08-04T06:02:25.653Z,24.40
2022-08-04T06:04:53.495Z,24.40
2022-08-04T06:07:20.805Z,24.40
2022-08-04T06:09:48.157Z,24.40
2022-08-04T06:12:32.700Z,24.40
2022-08-04T06:15:01.389Z,24.40
2022-08-04T06:18:37.000Z,24.30
2022-08-04T06:20:34.517Z,24.40
2022-08-04T06:23:07.506Z,24.30
2022-08-04T06:25:46.500Z,24.30
2022-08-04T06:28:15.460Z,24.40
2022-08-04T06:30:47.724Z,24.30
2022-08-04T06:33:27.776Z,24.10
2022-08-04T06:35:56.617Z,24.00
2022-08-04T06:38:25.986Z,23.90
2022-08-04T06:40:54.933Z,23.80
2022-08-04T06:43:23.175Z,23.70
2022-08-04T06:45:52.217Z,23.60
2022-08-04T06:48:21.689Z,23.60
2022-08-04T06:51:27.332Z,23.60
2022-08-04T06:53:48.245Z,23.60
2022-08-04T06:56:17.534Z,23.60
2022-08-04T06:58:46.757Z,23.60
2022-08-04T07:01:17.048Z,23.60
2022-08-04T07:03:44.615Z,23.70
2022-08-04T07:06:19.067Z,23.70
2022-08-04T07:08:49.613Z,23.80
2022-08-04T07:11:17.276Z,23.90
2022-08-04T07:13:46.598Z,23.90
2022-08-04T07:16:18.434Z,24.00
2022-08-04T07:18:45.823Z,24.10
2022-08-04T07:21:21.014Z,24.10
2022-08-04T07:23:48.810Z,24.20
2022-08-04T07:26:17.345Z,24.30
2022-08-04T07:28:44.743Z,24.40
2022-08-04T07:31:35.274Z,24.40
2022-08-04T07:34:16.804Z,24.40
2022-08-04T07:36:50.898Z,24.40
2022-08-04T07:39:28.645Z,24.50
2022-08-04T07:41:58.155Z,24.50
2022-08-04T07:44:25.876Z,24.60
2022-08-04T07:46:54.023Z,24.60
2022-08-04T07:49:55.081Z,24.60
2022-08-04T07:52:09.870Z,24.70
2022-08-04T07:54:39.157Z,24.80
2022-08-04T07:57:06.335Z,24.80
2022-08-04T07:59:35.113Z,24.80
2022-08-04T08:02:03.097Z,24.90
2022-08-04T08:04:30.820Z,24.90
2022-08-04T08:06:58.882Z,25.00
2022-08-04T08:09:26.188Z,25.00
2022-08-04T08:12:35.647Z,25.00
2022-08-04T08:14:42.788Z,25.00
2022-08-04T08:17:09.937Z,25.00
2022-08-04T08:19:38.468Z,25.00
2022-08-04T08:22:06.006Z,25.00
2022-08-04T08:24:36.417Z,25.00
2022-08-04T08:27:04.754Z,25.00
2022-08-04T08:29:35.016Z,25.10
2022-08-04T08:32:08.321Z,25.10
2022-08-04T08:34:37.814Z,25.10
2022-08-04T08:37:29.305Z,25.20
2022-08-04T08:40:02.360Z,25.20
2022-08-04T08:42:54.940Z,25.20
2022-08-04T08:45:53.015Z,25.20
2022-08-04T08:50:00.361Z,25.30
2022-08-04T08:52:05.829Z,25.30
2022-08-04T08:54:38.354Z,25.30
2022-08-04T08:57:24.162Z,25.30
2022-08-04T09:00:14.194Z,25.40
2022-08-04T09:02:47.373Z,25.40
2022-08-04T09:05:14.331Z,25.40
2022-08-04T09:08:15.109Z,25.50
2022-08-04T09:10:50.880Z,25.60
2022-08-04T09:13:21.539Z,25.60
2022-08-04T09:15:57.551Z,25.70
2022-08-04T09:18:43.377Z,25.70
2022-08-04T09:21:38.428Z,25.80
2022-08-04T09:24:36.227Z,25.80
2022-08-04T09:27:10.057Z,25.90
2022-08-04T09:29:41.843Z,25.90
2022-08-04T09:32:30.421Z,25.90
2022-08-04T09:35:13.518Z,26.00
2022-08-04T09:38:05.251Z,26.00
2022-08-04T09:40:57.230Z,26.00
2022-08-04T09:43:59.173Z,26.10
2022-08-04T09:46:37.165Z,26.10
2022-08-04T09:49:28.208Z,26.20
2022-08-04T09:52:09.954Z,26.20
2022-08-04T09:54:46.061Z,26.30
2022-08-04T09:57:36.299Z,26.30
2022-08-04T10:00:13.802Z,26.40
2022-08-04T10:02:52.253Z,26.40
2022-08-04T10:05:26.417Z,26.30
2022-08-04T10:08:16.665Z,26.30
2022-08-04T10:11:11.370Z,26.30
2022-08-04T10:14:02.907Z,26.40
2022-08-04T10:16:40.607Z,26.40
2022-08-04T10:19:30.039Z,26.40
2022-08-04T10:22:28.877Z,26.40
2022-08-04T10:26:02.669Z,26.30
2022-08-04T10:28:06.842Z,26.30
2022-08-04T10:30:37.284Z,26.30
2022-08-04T10:33:10.888Z,26.20
2022-08-04T10:36:03.099Z,26.20
2022-08-04T10:38:56.712Z,26.30
2022-08-04T10:41:59.783Z,26.40
2022-08-04T10:44:45.529Z,26.40
2022-08-04T10:47:22.487Z,26.40
2022-08-04T10:50:01.897Z,26.50
2022-08-04T10:52:48.101Z,26.50
2022-08-04T10:55:20.653Z,26.60
2022-08-04T10:58:01.619Z,26.70
2022-08-04T11:00:31.757Z,26.70
2022-08-04T11:03:01.957Z,26.90
2022-08-04T11:05:28.981Z,26.90
2022-08-04T11:08:08.732Z,26.90
2022-08-04T11:10:46.817Z,26.80
2022-08-04T11:13:22.158Z,26.80
2022-08-04T11:16:02.569Z,26.70
2022-08-04T11:18:44.428Z,26.80
2022-08-04T11:21:26.325Z,26.90
2022-08-04T11:24:03.406Z,27.00
2022-08-04T11:26:45.731Z,27.00
2022-08-04T11:29:25.424Z,27.00
2022-08-04T11:31:53.628Z,26.90
2022-08-04T11:34:23.747Z,27.10
2022-08-04T11:37:14.110Z,27.20
2022-08-04T11:39:52.045Z,27.30
2022-08-04T11:42:30.811Z,27.40
2022-08-04T11:45:04.834Z,27.40
2022-08-04T11:47:54.310Z,27.50
2022-08-04T11:50:53.643Z,27.80
2022-08-04T11:53:26.646Z,28.10
2022-08-04T11:56:09.404Z,28.10
2022-08-04T11:58:38.149Z,28.10
2022-08-04T12:01:44.233Z,28.00
2022-08-04T12:04:26.920Z,28.10
2022-08-04T12:07:30.055Z,28.40
2022-08-04T12:10:41.062Z,28.60
2022-08-04T12:13:28.174Z,28.90
2022-08-04T12:15:58.193Z,29.40
2022-08-04T12:18:34.804Z,29.70
2022-08-04T12:21:09.213Z,29.70
2022-08-04T12:23:41.800Z,29.80
2022-08-04T12:26:17.403Z,29.80
2022-08-04T12:31:48.249Z,30.00
2022-08-04T12:34:34.159Z,30.10
2022-08-04T12:37:30.698Z,30.10
2022-08-04T12:40:28.173Z,30.00
2022-08-04T12:43:15.052Z,29.80
2022-08-04T12:45:49.810Z,29.70
2022-08-04T12:48:21.251Z,29.90
2022-08-04T12:50:59.350Z,30.10
2022-08-04T12:53:50.647Z,30.40
2022-08-04T12:56:26.550Z,30.90
2022-08-04T12:59:01.181Z,31.40
2022-08-04T13:02:09.337Z,31.80
2022-08-04T13:04:28.979Z,32.10
2022-08-04T13:07:23.173Z,32.20
2022-08-04T13:09:53.324Z,32.10
2022-08-04T13:12:32.528Z,31.90
2022-08-04T13:15:10.882Z,31.60
2022-08-04T13:18:11.909Z,31.30
2022-08-04T13:20:45.197Z,31.00
2022-08-04T13:23:21.549Z,31.00
2022-08-04T13:26:42.976Z,31.20
2022-08-04T13:28:43.117Z,31.40
2022-08-04T13:31:19.913Z,31.50
2022-08-04T13:33:53.162Z,31.50
2022-08-04T13:36:25.590Z,31.60
2022-08-04T13:38:57.509Z,31.90
2022-08-04T13:41:30.943Z,32.10
2022-08-04T13:44:18.252Z,32.20
2022-08-04T13:47:05.082Z,32.40
2022-08-04T13:49:42.473Z,32.70
2022-08-04T13:52:26.388Z,32.90
2022-08-04T13:54:53.847Z,33.00
2022-08-04T13:57:33.232Z,33.00
2022-08-04T14:00:09.349Z,33.00
2022-08-04T14:03:23.086Z,32.80
2022-08-04T14:06:15.404Z,32.70
2022-08-04T14:08:56.293Z,32.60
2022-08-04T14:12:09.923Z,32.60
2022-08-04T14:14:32.816Z,32.40
2022-08-04T14:17:20.358Z,32.30
2022-08-04T14:19:56.069Z,32.10
2022-08-04T14:22:26.333Z,32.00
2022-08-04T14:25:09.278Z,31.90
2022-08-04T14:27:45.733Z,31.80
2022-08-04T14:30:23.098Z,31.70
2022-08-04T14:34:00.526Z,31.60
2022-08-04T14:36:04.182Z,31.50
2022-08-04T14:38:45.137Z,31.50
2022-08-04T14:41:13.044Z,31.40
2022-08-04T14:43:57.529Z,31.40
2022-08-04T14:46:36.085Z,31.40
2022-08-04T14:49:04.144Z,31.40
2022-08-04T14:51:45.599Z,31.40
2022-08-04T14:54:18.531Z,31.30
2022-08-04T14:56:55.717Z,31.20
2022-08-04T14:59:24.600Z,31.20
2022-08-04T15:02:00.872Z,31.10
2022-08-04T15:04:29.999Z,31.00
2022-08-04T15:06:57.543Z,31.00
2022-08-04T15:09:25.173Z,31.00
2022-08-04T15:11:52.423Z,30.90
2022-08-04T15:14:36.948Z,30.80
2022-08-04T15:17:12.030Z,30.80
2022-08-04T15:19:56.876Z,30.70
2022-08-04T15:22:24.187Z,30.70
2022-08-04T15:24:54.864Z,30.70
2022-08-04T15:27:30.026Z,30.60
2022-08-04T15:30:04.278Z,30.60
2022-08-04T15:32:38.239Z,30.60
2022-08-04T15:35:08.626Z,30.50
2022-08-04T15:38:07.846Z,30.50
2022-08-04T15:40:59.894Z,30.50
2022-08-04T15:43:45.622Z,30.40
2022-08-04T15:46:42.843Z,30.40
2022-08-04T15:49:22.811Z,30.40
2022-08-04T15:52:04.194Z,30.40
2022-08-04T15:54:39.830Z,30.30
2022-08-04T15:57:10.335Z,30.30
2022-08-04T15:59:58.432Z,30.30
2022-08-04T16:02:37.521Z,30.30
2022-08-04T16:05:18.636Z,30.30
2022-08-04T16:08:08.507Z,30.20
2022-08-04T16:10:36.668Z,30.20
2022-08-04T16:13:20.371Z,30.20
2022-08-04T16:15:55.512Z,30.20
2022-08-04T16:18:28.854Z,30.20
2022-08-04T16:21:02.494Z,30.20
2022-08-04T16:24:15.297Z,30.20
2022-08-04T16:26:56.848Z,30.20
2022-08-04T16:29:28.075Z,30.20
2022-08-04T16:32:11.865Z,30.20
2022-08-04T16:34:49.956Z,30.10
2022-08-04T16:37:21.694Z,30.10
2022-08-04T16:39:50.820Z,30.10
2022-08-04T16:42:32.325Z,30.00
2022-08-04T16:45:19.774Z,30.00
2022-08-04T16:47:49.610Z,30.00
2022-08-04T16:50:18.407Z,30.00
2022-08-04T16:52:51.036Z,30.00
2022-08-04T16:55:27.069Z,30.00
2022-08-04T16:57:58.943Z,29.90
2022-08-04T17:00:31.484Z,29.90
2022-08-04T17:03:01.510Z,29.90
2022-08-04T17:05:39.045Z,29.80
2022-08-04T17:10:56.378Z,29.80
2022-08-04T17:14:04.635Z,29.70
2022-08-04T17:16:21.627Z,29.70
2022-08-04T17:18:51.646Z,29.70
2022-08-04T17:21:28.175Z,29.70
2022-08-04T17:24:14.884Z,29.60
2022-08-04T17:26:53.602Z,29.60
2022-08-04T17:29:42.812Z,29.60
2022-08-04T17:32:15.311Z,29.50
2022-08-04T17:34:46.175Z,29.50
2022-08-04T17:40:11.463Z,29.50
2022-08-04T17:42:40.275Z,29.40
2022-08-04T17:48:09.608Z,29.40
2022-08-04T17:50:36.969Z,29.40
2022-08-04T17:53:12.974Z,29.30
2022-08-04T17:55:43.295Z,29.30
2022-08-04T17:58:20.966Z,29.30
2022-08-04T18:01:23.193Z,29.20
2022-08-04T18:03:52.907Z,29.20
2022-08-04T18:06:23.048Z,29.20
2022-08-04T18:08:58.134Z,29.20
2022-08-04T18:11:29.636Z,29.10
2022-08-04T18:14:10.540Z,29.10
2022-08-04T18:16:44.796Z,29.10
2022-08-04T18:19:15.326Z,29.10
2022-08-04T18:21:45.976Z,29.00
2022-08-04T18:24:35.359Z,29.00
2022-08-04T18:27:21.869Z,29.00
2022-08-04T18:30:14.467Z,28.90
2022-08-04T18:32:36.984Z,28.90
2022-08-04T18:35:18.722Z,28.90
2022-08-04T18:38:06.434Z,28.80
2022-08-04T18:40:53.209Z,28.80
2022-08-04T18:43:28.048Z,28.80
2022-08-04T18:45:59.524Z,28.80
2022-08-04T18:48:36.961Z,28.70
2022-08-04T18:51:22.789Z,28.70
2022-08-04T18:53:55.203Z,28.70
2022-08-04T18:56:32.431Z,28.60
2022-08-04T18:59:04.754Z,28.60
2022-08-04T19:02:13.610Z,28.60
2022-08-04T19:04:33.407Z,28.50
2022-08-04T19:08:02.584Z,28.50
2022-08-04T19:09:57.343Z,28.50
2022-08-04T19:12:26.882Z,28.50
2022-08-04T19:14:58.853Z,28.40
2022-08-04T19:17:53.905Z,28.40
2022-08-04T19:20:25.688Z,28.40
2022-08-04T19:24:27.957Z,28.30
2022-08-04T19:26:02.263Z,28.30
2022-08-04T19:28:34.060Z,28.30
2022-08-04T19:31:07.410Z,28.20
2022-08-04T19:33:59.507Z,28.20
2022-08-04T19:36:27.978Z,28.20
2022-08-04T19:38:59.124Z,28.20
2022-08-04T19:41:27.297Z,28.10
2022-08-04T19:43:54.811Z,28.10
2022-08-04T19:50:02.896Z,28.10
2022-08-04T19:51:56.874Z,28.00
2022-08-04T19:54:27.348Z,28.00
2022-08-04T19:56:54.707Z,27.90
2022-08-04T19:59:22.786Z,27.90
2022-08-04T20:01:50.283Z,27.90
2022-08-04T20:04:17.535Z,27.90
2022-08-04T20:06:44.675Z,27.80
2022-08-04T20:09:26.534Z,27.80
2022-08-04T20:11:58.140Z,27.80
2022-08-04T20:14:32.525Z,27.70
2022-08-04T20:17:10.067Z,27.70
2022-08-04T20:19:38.849Z,27.70
2022-08-04T20:22:08.646Z,27.70
2022-08-04T20:25:01.089Z,27.60
2022-08-04T20:27:59.333Z,27.60
2022-08-04T20:30:28.499Z,27.60
2022-08-04T20:32:56.639Z,27.60
2022-08-04T20:35:27.054Z,27.50
2022-08-04T20:38:00.322Z,27.50
2022-08-04T20:40:29.190Z,27.50
2022-08-04T20:43:00.350Z,27.40
2022-08-04T20:45:57.093Z,27.40
2022-08-04T20:48:15.213Z,27.30
2022-08-04T20:50:46.095Z,27.30
2022-08-04T20:53:16.576Z,27.30
2022-08-04T20:55:54.708Z,27.30
2022-08-04T20:58:27.399Z,27.30
2022-08-04T21:00:55.659Z,27.30
2022-08-04T21:03:49.840Z,27.20
2022-08-04T21:06:10.297Z,27.20
2022-08-04T21:08:37.587Z,27.20
2022-08-04T21:11:06.946Z,27.20
2022-08-04T21:13:50.667Z,27.20
2022-08-04T21:16:53.768Z,27.20
2022-08-04T21:19:13.082Z,27.10
2022-08-04T21:21:42.382Z,27.10
2022-08-04T21:24:10.187Z,27.10
2022-08-04T21:26:42.837Z,27.00
2022-08-04T21:29:14.523Z,27.00
2022-08-04T21:31:51.053Z,27.00
2022-08-04T21:34:39.091Z,26.90
2022-08-04T21:37:09.354Z,26.90
2022-08-04T21:39:50.318Z,26.90
2022-08-04T21:42:39.045Z,26.90
2022-08-04T21:45:10.125Z,26.80
2022-08-04T21:47:46.784Z,26.80
2022-08-04T21:50:19.969Z,26.80
2022-08-04T21:52:49.188Z,26.80
2022-08-04T21:55:17.203Z,26.80
2022-08-04T21:57:46.255Z,26.70
2022-08-04T22:03:03.853Z,26.70
2022-08-04T22:05:32.774Z,26.70
2022-08-04T22:08:00.030Z,26.60
2022-08-04T22:18:41.059Z,26.60
2022-08-04T22:21:09.614Z,26.60
2022-08-04T22:23:45.173Z,26.50
2022-08-04T22:26:14.490Z,26.50
2022-08-04T22:28:49.328Z,26.50
2022-08-04T22:31:24.005Z,26.40
2022-08-04T22:33:54.648Z,26.50
2022-08-04T22:36:24.789Z,26.40
2022-08-04T22:39:04.472Z,26.40
2022-08-04T22:41:48.699Z,26.30
2022-08-04T22:44:21.922Z,26.10
2022-08-04T22:46:50.976Z,26.00
2022-08-04T22:49:18.044Z,25.90
2022-08-04T22:51:52.165Z,25.80
2022-08-04T22:54:19.225Z,25.70
2022-08-04T22:56:46.488Z,25.70
2022-08-04T22:59:14.115Z,25.70
2022-08-04T23:01:59.102Z,25.70
2022-08-04T23:04:31.490Z,25.70
2022-08-04T23:07:00.655Z,25.70
2022-08-04T23:09:50.061Z,25.70
2022-08-04T23:12:27.310Z,25.80
2022-08-04T23:14:56.583Z,25.80
2022-08-04T23:17:25.231Z,25.80
2022-08-04T23:19:58.678Z,25.80
2022-08-04T23:22:37.439Z,25.80
2022-08-04T23:25:16.358Z,25.80
2022-08-04T23:27:51.650Z,25.80
2022-08-04T23:30:24.384Z,25.80
2022-08-04T23:32:56.463Z,25.70
2022-08-04T23:35:24.018Z,25.70
2022-08-04T23:37:56.805Z,25.70
2022-08-04T23:40:32.371Z,25.70
2022-08-04T23:43:01.934Z,25.70
2022-08-04T23:46:08.318Z,25.60
2022-08-04T23:48:20.842Z,25.60
2022-08-04T23:50:48.681Z,25.60
2022-08-04T23:53:18.312Z,25.60
2022-08-04T23:55:45.913Z,25.60
2022-08-04T23:58:18.651Z,25.50
